Time;durP1;ratioP1;P1;durP2;ratioP2;P2;SDS_P1;SDS_P2;PMS_P1;PMS_P2;Temp;Humidity;BMP_temperature;BMP_pressure;BME280_temperature;BME280_humidity;BME280_pressure;Samples;Min_cycle;Max_cycle;Signal;HPM_P1;HPM_P2
2023/10/15 00:04:47;;;;;;;8.23;4.57;;;;;;;;;;2799341;23;20736;-54
2023/10/15 00:09:55;;;;;;;9.15;4.65;;;;;;;;;;5040085;23;20081;-56
2023/10/15 00:12:21;;;;;;;8.97;4.50;;;;;;;;;;5008463;28;20061;-57
2023/10/15 00:14:46;;;;;;;8.68;4.47;;;;;;;;;;5010561;28;20300;-57
2023/10/15 00:17:11;;;;;;;10.43;4.97;;;;;;;;;;5024458;28;20041;-58
2023/10/15 00:19:36;;;;;;;10.13;4.18;;;;;;;;;;5003466;28;20296;-58
2023/10/15 00:22:02;;;;;;;9.48;4.40;;;;;;;;;;5014082;28;20042;-57
2023/10/15 00:24:27;;;;;;;7.53;4.68;;;;;;;;;;5029072;23;20095;-55
2023/10/15 00:26:53;;;;;;;7.25;4.55;;;;;;;;;;5018550;28;20056;-54
2023/10/15 00:29:19;;;;;;;7.25;3.78;;;;;;;;;;5016151;28;20076;-55
2023/10/15 00:31:44;;;;;;;6.03;3.70;;;;;;;;;;5018999;28;20527;-55
2023/10/15 00:34:12;;;;;;;6.63;4.00;;;;;;;;;;5016327;28;20120;-56
2023/10/15 00:39:41;;;;;;;11.20;4.50;;;;;;;;;;5004647;23;20061;-58
2023/10/15 00:42:07;;;;;;;8.70;4.40;;;;;;;;;;4981846;28;20044;-57
2023/10/15 00:44:33;;;;;;;6.55;4.07;;;;;;;;;;4979198;28;20538;-56
2023/10/15 00:47:01;;;;;;;6.50;4.03;;;;;;;;;;4962274;28;20060;-56
2023/10/15 00:49:27;;;;;;;5.75;4.15;;;;;;;;;;4980206;28;20074;-57
2023/10/15 00:51:52;;;;;;;8.40;4.00;;;;;;;;;;4997863;28;20382;-57
2023/10/15 00:54:17;;;;;;;8.43;4.20;;;;;;;;;;4982167;28;20265;-56
2023/10/15 00:56:46;;;;;;;7.55;4.20;;;;;;;;;;4998255;28;20485;-57
2023/10/15 01:02:02;;;;;;;6.68;4.00;;;;;;;;;;4976243;28;20657;-58
2023/10/15 01:04:31;;;;;;;7.53;4.50;;;;;;;;;;4982810;28;20049;-57
2023/10/15 01:07:00;;;;;;;8.80;4.30;;;;;;;;;;4997802;28;20367;-58
2023/10/15 01:09:29;;;;;;;7.13;4.07;;;;;;;;;;4997419;28;20045;-57
2023/10/15 01:11:57;;;;;;;7.90;4.43;;;;;;;;;;4978845;28;20057;-58
2023/10/15 01:14:32;;;;;;;7.97;3.83;;;;;;;;;;4980546;28;20022;-57
2023/10/15 01:16:59;;;;;;;8.68;3.85;;;;;;;;;;4996473;28;20060;-58
2023/10/15 01:19:33;;;;;;;7.15;3.90;;;;;;;;;;4997855;28;20037;-58
2023/10/15 01:22:02;;;;;;;5.28;4.10;;;;;;;;;;4998287;28;20068;-58
2023/10/15 01:24:28;;;;;;;7.67;4.10;;;;;;;;;;4979793;28;20033;-57
2023/10/15 01:26:59;;;;;;;6.80;4.28;;;;;;;;;;4963943;28;20044;-57
2023/10/15 01:29:28;;;;;;;6.95;4.05;;;;;;;;;;4980810;28;20081;-59
2023/10/15 01:32:06;;;;;;;7.05;4.50;;;;;;;;;;4993578;28;20057;-57
2023/10/15 01:34:37;;;;;;;8.88;4.13;;;;;;;;;;4996668;28;20042;-57
2023/10/15 01:37:05;;;;;;;9.00;4.10;;;;;;;;;;4996725;28;20125;-57
2023/10/15 01:39:40;;;;;;;7.63;4.00;;;;;;;;;;4978999;28;20104;-59
2023/10/15 01:42:06;;;;;;;6.38;3.83;;;;;;;;;;4979276;28;20060;-57
2023/10/15 01:44:32;;;;;;;7.05;3.70;;;;;;;;;;4979941;28;20029;-58
2023/10/15 01:49:32;;;;;;;8.60;4.55;;;;;;;;;;4994938;28;20038;-58
2023/10/15 01:52:10;;;;;;;5.95;3.60;;;;;;;;;;4974792;28;20069;-57
2023/10/15 01:54:35;;;;;;;6.60;4.03;;;;;;;;;;4993716;28;20144;-57
2023/10/15 01:57:06;;;;;;;6.68;3.80;;;;;;;;;;4978564;28;20393;-57
2023/10/15 01:59:41;;;;;;;8.75;4.13;;;;;;;;;;4983798;28;20770;-58
2023/10/15 02:02:06;;;;;;;7.32;3.78;;;;;;;;;;4965611;28;20046;-58
2023/10/15 02:04:41;;;;;;;8.50;4.10;;;;;;;;;;4995153;28;20056;-57
2023/10/15 02:07:07;;;;;;;8.82;4.00;;;;;;;;;;4982031;28;20725;-58
2023/10/15 02:09:38;;;;;;;9.98;4.10;;;;;;;;;;4996910;28;20046;-58
2023/10/15 02:12:05;;;;;;;6.47;4.28;;;;;;;;;;4961133;28;20041;-58
2023/10/15 02:14:30;;;;;;;6.28;4.20;;;;;;;;;;4972956;28;20044;-58
2023/10/15 02:16:59;;;;;;;7.65;3.90;;;;;;;;;;4976186;28;20431;-57
2023/10/15 02:19:58;;;;;;;6.13;3.90;;;;;;;;;;4963496;28;20513;-58
2023/10/15 02:22:16;;;;;;;7.10;3.97;;;;;;;;;;4978595;28;20529;-58
2023/10/15 02:24:49;;;;;;;6.40;3.95;;;;;;;;;;4977183;28;20625;-57
2023/10/15 02:27:23;;;;;;;7.57;4.07;;;;;;;;;;4979215;28;20252;-57
2023/10/15 02:29:52;;;;;;;6.68;4.38;;;;;;;;;;4971793;28;20506;-58
2023/10/15 02:34:51;;;;;;;6.82;3.97;;;;;;;;;;4978356;28;20033;-57
2023/10/15 02:37:18;;;;;;;7.15;4.15;;;;;;;;;;4996886;28;20407;-57
2023/10/15 02:39:44;;;;;;;6.72;4.00;;;;;;;;;;4977023;28;20056;-57
2023/10/15 02:42:10;;;;;;;7.60;3.90;;;;;;;;;;4986901;28;20042;-59
2023/10/15 02:44:38;;;;;;;7.57;4.20;;;;;;;;;;4983264;28;20095;-58
2023/10/15 02:47:49;;;;;;;6.65;4.15;;;;;;;;;;4993054;28;20096;-57
2023/10/15 02:49:51;;;;;;;6.50;3.92;;;;;;;;;;4984335;28;20468;-58
2023/10/15 02:52:20;;;;;;;7.20;4.25;;;;;;;;;;4972490;28;20173;-58
2023/10/15 02:54:46;;;;;;;6.20;4.20;;;;;;;;;;4974003;28;20050;-57
2023/10/15 02:57:18;;;;;;;6.68;4.15;;;;;;;;;;4974886;28;20122;-58
2023/10/15 02:59:52;;;;;;;7.35;3.92;;;;;;;;;;4939270;28;20053;-57
2023/10/15 03:02:21;;;;;;;6.47;4.20;;;;;;;;;;4975254;28;20125;-57
2023/10/15 03:04:55;;;;;;;6.20;4.63;;;;;;;;;;4975982;28;20032;-57
2023/10/15 03:07:30;;;;;;;7.00;4.15;;;;;;;;;;4992876;28;20033;-56
2023/10/15 03:09:59;;;;;;;7.07;4.00;;;;;;;;;;4971859;28;20057;-59
2023/10/15 03:12:24;;;;;;;8.70;4.30;;;;;;;;;;4958006;28;20068;-57
2023/10/15 03:14:51;;;;;;;8.07;3.92;;;;;;;;;;4977416;28;20078;-56
2023/10/15 03:17:29;;;;;;;6.75;4.10;;;;;;;;;;4990342;28;20084;-57
2023/10/15 03:19:55;;;;;;;6.93;4.60;;;;;;;;;;4990680;28;20521;-57
2023/10/15 03:22:23;;;;;;;8.82;4.22;;;;;;;;;;4971379;28;20248;-56
2023/10/15 03:24:49;;;;;;;6.88;3.97;;;;;;;;;;4979348;28;20259;-57
2023/10/15 03:27:16;;;;;;;6.40;4.22;;;;;;;;;;4976660;28;20653;-57
2023/10/15 03:29:42;;;;;;;8.30;4.32;;;;;;;;;;4959989;28;20601;-57
2023/10/15 03:32:12;;;;;;;5.78;4.25;;;;;;;;;;4969911;28;20049;-56
2023/10/15 03:34:47;;;;;;;7.18;4.30;;;;;;;;;;4977269;28;20042;-57
2023/10/15 03:37:13;;;;;;;7.18;3.83;;;;;;;;;;4962243;28;20049;-57
2023/10/15 03:42:17;;;;;;;8.40;4.10;;;;;;;;;;4993154;28;20129;-57
2023/10/15 03:44:47;;;;;;;7.55;4.35;;;;;;;;;;4950461;28;20813;-56
2023/10/15 03:47:13;;;;;;;5.95;4.22;;;;;;;;;;4976290;28;20070;-57
2023/10/15 03:49:39;;;;;;;9.13;4.20;;;;;;;;;;4993875;28;20042;-58
2023/10/15 03:52:08;;;;;;;7.80;4.75;;;;;;;;;;4974483;28;20068;-57
2023/10/15 03:54:35;;;;;;;7.60;4.60;;;;;;;;;;4975094;28;20046;-57
2023/10/15 03:57:01;;;;;;;8.50;4.00;;;;;;;;;;4975910;28;20038;-58
2023/10/15 03:59:27;;;;;;;7.80;4.22;;;;;;;;;;4977853;28;20300;-59
2023/10/15 04:01:52;;;;;;;8.13;4.00;;;;;;;;;;4992480;28;20039;-59
2023/10/15 04:04:18;;;;;;;7.00;4.07;;;;;;;;;;4992863;28;20100;-58
2023/10/15 04:07:02;;;;;;;7.05;4.35;;;;;;;;;;4975540;28;20038;-57
2023/10/15 04:09:30;;;;;;;8.75;4.22;;;;;;;;;;4991216;28;20054;-57
2023/10/15 04:11:55;;;;;;;8.23;4.47;;;;;;;;;;4994659;28;20042;-58
2023/10/15 04:16:46;;;;;;;7.67;4.30;;;;;;;;;;4993611;28;20044;-56
2023/10/15 04:19:16;;;;;;;6.80;4.13;;;;;;;;;;4957538;28;20325;-58
2023/10/15 04:21:43;;;;;;;6.53;4.22;;;;;;;;;;4956400;28;20043;-57
2023/10/15 04:24:08;;;;;;;8.80;4.68;;;;;;;;;;4978693;28;20129;-58
2023/10/15 04:26:40;;;;;;;7.47;3.92;;;;;;;;;;4996067;28;20030;-57
2023/10/15 04:29:17;;;;;;;7.22;4.05;;;;;;;;;;4998275;28;20049;-57
2023/10/15 04:31:45;;;;;;;7.00;4.40;;;;;;;;;;4965274;28;20057;-58
2023/10/15 04:34:16;;;;;;;8.32;3.90;;;;;;;;;;4981437;28;20033;-57
2023/10/15 04:36:43;;;;;;;7.18;4.05;;;;;;;;;;4977560;28;20065;-56
2023/10/15 04:39:11;;;;;;;6.03;3.92;;;;;;;;;;4979826;28;20034;-57
2023/10/15 04:41:37;;;;;;;7.75;4.15;;;;;;;;;;4980242;28;20793;-56
2023/10/15 04:44:03;;;;;;;6.88;4.05;;;;;;;;;;4980209;28;20554;-57
2023/10/15 04:46:30;;;;;;;8.48;4.32;;;;;;;;;;4997409;28;20363;-58
2023/10/15 04:48:55;;;;;;;7.93;4.50;;;;;;;;;;4976383;28;20054;-57
2023/10/15 04:51:29;;;;;;;7.53;4.28;;;;;;;;;;4976063;28;20458;-56
2023/10/15 04:53:55;;;;;;;6.15;4.20;;;;;;;;;;4952727;28;20153;-58
2023/10/15 04:56:21;;;;;;;7.05;3.72;;;;;;;;;;4957684;28;20034;-58
2023/10/15 04:58:48;;;;;;;7.50;4.30;;;;;;;;;;4944341;28;20066;-57
2023/10/15 05:01:14;;;;;;;6.22;4.00;;;;;;;;;;4944264;28;20150;-57
2023/10/15 05:03:40;;;;;;;7.25;4.45;;;;;;;;;;4958390;28;20612;-58
2023/10/15 05:06:15;;;;;;;6.85;3.90;;;;;;;;;;4960812;28;20046;-57
2023/10/15 05:08:40;;;;;;;5.30;3.95;;;;;;;;;;4959552;28;20046;-58
2023/10/15 05:11:07;;;;;;;4.93;3.60;;;;;;;;;;4965229;28;20093;-59
2023/10/15 05:13:33;;;;;;;5.93;3.63;;;;;;;;;;4946478;28;20030;-58
2023/10/15 05:15:58;;;;;;;6.95;3.92;;;;;;;;;;4944577;28;20506;-58
2023/10/15 05:18:29;;;;;;;6.63;3.63;;;;;;;;;;4960126;28;20816;-58
2023/10/15 05:20:55;;;;;;;5.65;3.80;;;;;;;;;;4974238;28;20488;-59
2023/10/15 05:23:20;;;;;;;5.45;3.70;;;;;;;;;;4967369;28;20052;-58
2023/10/15 05:25:45;;;;;;;6.43;3.75;;;;;;;;;;4948212;28;20077;-59
2023/10/15 05:28:14;;;;;;;8.82;3.45;;;;;;;;;;4964673;28;20060;-59
2023/10/15 05:30:39;;;;;;;5.78;3.72;;;;;;;;;;4950787;28;20081;-58
2023/10/15 05:33:06;;;;;;;6.00;3.83;;;;;;;;;;4962352;28;20038;-58
2023/10/15 05:35:34;;;;;;;4.65;3.22;;;;;;;;;;4942477;28;20089;-58
2023/10/15 05:38:00;;;;;;;5.97;3.22;;;;;;;;;;4963798;28;20034;-58
2023/10/15 05:40:26;;;;;;;6.07;3.67;;;;;;;;;;4962556;28;20317;-57
2023/10/15 05:42:51;;;;;;;5.80;3.58;;;;;;;;;;4955539;28;20093;-58
2023/10/15 05:45:18;;;;;;;5.60;3.50;;;;;;;;;;4930466;28;20418;-58
2023/10/15 05:47:43;;;;;;;5.60;3.75;;;;;;;;;;4954414;28;20113;-59
2023/10/15 05:50:09;;;;;;;5.35;3.70;;;;;;;;;;4926897;28;20049;-58
2023/10/15 05:52:34;;;;;;;6.13;3.75;;;;;;;;;;4957720;28;20039;-57
2023/10/15 05:55:00;;;;;;;5.65;3.60;;;;;;;;;;4956435;28;20037;-59
2023/10/15 05:57:26;;;;;;;5.07;3.72;;;;;;;;;;4956732;28;20407;-57
2023/10/15 05:59:54;;;;;;;5.80;3.50;;;;;;;;;;4952812;28;20065;-58
2023/10/15 06:02:20;;;;;;;5.05;3.20;;;;;;;;;;4958467;28;21377;-58
2023/10/15 06:04:46;;;;;;;5.20;3.53;;;;;;;;;;4971607;28;20489;-58
2023/10/15 06:07:12;;;;;;;5.53;3.80;;;;;;;;;;4956842;28;20241;-58
2023/10/15 06:09:37;;;;;;;5.15;3.53;;;;;;;;;;4958289;28;20054;-59
2023/10/15 06:12:05;;;;;;;8.75;4.00;;;;;;;;;;4957559;28;20038;-60
2023/10/15 06:14:31;;;;;;;7.82;4.43;;;;;;;;;;4961238;28;20030;-58
2023/10/15 06:16:56;;;;;;;9.18;4.22;;;;;;;;;;4966903;28;20554;-59
2023/10/15 06:19:22;;;;;;;8.82;5.00;;;;;;;;;;4962030;28;20038;-58
2023/10/15 06:21:47;;;;;;;7.38;4.85;;;;;;;;;;4967811;28;20046;-58
2023/10/15 06:24:12;;;;;;;7.85;4.57;;;;;;;;;;4929792;28;20049;-58
2023/10/15 06:26:38;;;;;;;9.02;4.45;;;;;;;;;;4947549;28;20049;-57
2023/10/15 06:29:03;;;;;;;9.65;5.00;;;;;;;;;;4962967;28;20847;-57
2023/10/15 06:31:29;;;;;;;12.48;5.15;;;;;;;;;;4929761;28;20030;-57
2023/10/15 06:33:55;;;;;;;9.50;5.45;;;;;;;;;;4943233;28;20054;-57
2023/10/15 06:36:21;;;;;;;7.78;5.55;;;;;;;;;;4957552;28;20121;-56
2023/10/15 06:38:46;;;;;;;8.85;4.65;;;;;;;;;;4946665;28;20588;-58
2023/10/15 06:41:12;;;;;;;9.20;5.07;;;;;;;;;;4929255;28;20069;-57
2023/10/15 06:43:37;;;;;;;9.02;4.75;;;;;;;;;;4943796;28;20174;-58
2023/10/15 06:46:06;;;;;;;7.95;4.53;;;;;;;;;;4932241;28;20137;-57
2023/10/15 06:48:33;;;;;;;7.63;5.10;;;;;;;;;;4955380;28;20108;-56
2023/10/15 06:50:59;;;;;;;9.43;4.85;;;;;;;;;;4958620;28;20499;-57
2023/10/15 06:53:31;;;;;;;7.10;4.18;;;;;;;;;;4959915;28;20152;-57
2023/10/15 06:55:57;;;;;;;12.20;4.97;;;;;;;;;;4959182;28;20541;-56
2023/10/15 06:58:22;;;;;;;10.70;4.78;;;;;;;;;;4961163;28;21103;-57
2023/10/15 07:00:48;;;;;;;9.00;4.72;;;;;;;;;;4944623;28;20504;-57
2023/10/15 07:03:15;;;;;;;8.30;4.20;;;;;;;;;;4926860;28;20093;-57
2023/10/15 07:05:41;;;;;;;7.13;4.38;;;;;;;;;;4953406;28;21746;-57
2023/10/15 07:08:06;;;;;;;10.68;4.60;;;;;;;;;;4965156;28;20093;-57
2023/10/15 07:10:33;;;;;;;10.17;4.93;;;;;;;;;;4978675;28;20113;-57
2023/10/15 07:13:01;;;;;;;11.57;4.70;;;;;;;;;;4965329;28;20310;-56
2023/10/15 07:15:26;;;;;;;9.93;5.28;;;;;;;;;;4966329;28;20034;-56
2023/10/15 07:17:53;;;;;;;9.05;4.85;;;;;;;;;;4957630;28;20041;-57
2023/10/15 07:20:20;;;;;;;8.40;4.70;;;;;;;;;;4975201;28;20115;-57
2023/10/15 07:22:51;;;;;;;10.70;4.93;;;;;;;;;;4969237;28;20046;-57
2023/10/15 07:25:17;;;;;;;8.73;5.22;;;;;;;;;;4979880;28;20714;-57
2023/10/15 07:27:45;;;;;;;8.98;4.88;;;;;;;;;;4979290;28;20041;-58
2023/10/15 07:30:13;;;;;;;9.80;4.95;;;;;;;;;;4994277;28;20058;-56
2023/10/15 07:32:44;;;;;;;9.38;5.45;;;;;;;;;;4974162;28;20038;-56
2023/10/15 07:35:13;;;;;;;9.73;5.45;;;;;;;;;;4995070;28;20057;-57
2023/10/15 07:37:46;;;;;;;9.73;5.47;;;;;;;;;;4963065;28;20042;-57
2023/10/15 07:40:18;;;;;;;10.18;5.20;;;;;;;;;;4977189;28;20041;-57
2023/10/15 07:42:48;;;;;;;9.93;4.85;;;;;;;;;;4962104;28;20572;-56
2023/10/15 07:45:14;;;;;;;10.10;5.45;;;;;;;;;;4994919;28;20093;-57
2023/10/15 07:47:39;;;;;;;7.00;4.78;;;;;;;;;;4961387;28;20033;-57
2023/10/15 07:50:07;;;;;;;11.90;5.65;;;;;;;;;;4967419;28;20592;-57
2023/10/15 07:52:32;;;;;;;10.73;4.75;;;;;;;;;;4989076;28;20037;-57
2023/10/15 07:54:58;;;;;;;9.60;4.70;;;;;;;;;;4971303;28;20093;-56
2023/10/15 07:57:23;;;;;;;9.90;4.65;;;;;;;;;;4966057;28;20033;-57
2023/10/15 07:59:48;;;;;;;6.57;4.38;;;;;;;;;;4957265;28;20045;-56
2023/10/15 08:02:14;;;;;;;9.40;5.22;;;;;;;;;;4996027;28;20351;-56
2023/10/15 08:04:39;;;;;;;9.10;4.60;;;;;;;;;;4976364;28;20604;-57
2023/10/15 08:07:08;;;;;;;10.13;4.82;;;;;;;;;;4974293;28;20046;-58
2023/10/15 08:09:33;;;;;;;9.70;5.15;;;;;;;;;;4987377;28;20116;-57
2023/10/15 08:11:59;;;;;;;9.85;4.90;;;;;;;;;;4987231;28;20037;-56
2023/10/15 08:14:24;;;;;;;8.53;4.70;;;;;;;;;;4992560;28;20042;-56
2023/10/15 08:16:53;;;;;;;8.50;4.82;;;;;;;;;;4970929;28;20286;-60
2023/10/15 08:19:19;;;;;;;8.53;4.73;;;;;;;;;;4971195;28;20137;-56
2023/10/15 08:21:44;;;;;;;10.07;4.25;;;;;;;;;;4974884;28;20471;-56
2023/10/15 08:24:09;;;;;;;10.38;4.45;;;;;;;;;;4978999;28;20591;-57
2023/10/15 08:26:37;;;;;;;8.40;4.75;;;;;;;;;;4979363;28;20041;-58
2023/10/15 08:29:02;;;;;;;8.77;4.50;;;;;;;;;;4996480;28;20334;-57
2023/10/15 08:31:27;;;;;;;10.80;4.93;;;;;;;;;;4990257;28;20592;-58
2023/10/15 08:33:53;;;;;;;6.55;4.30;;;;;;;;;;4975868;28;20037;-57
2023/10/15 08:36:19;;;;;;;10.50;4.68;;;;;;;;;;4996063;28;20057;-57
2023/10/15 08:38:46;;;;;;;10.18;5.10;;;;;;;;;;4995201;28;20774;-58
2023/10/15 08:41:11;;;;;;;11.10;5.28;;;;;;;;;;4978278;28;20104;-57
2023/10/15 08:43:40;;;;;;;11.13;4.93;;;;;;;;;;4943992;28;20046;-59
2023/10/15 08:46:12;;;;;;;9.70;5.60;;;;;;;;;;4961875;28;20038;-58
2023/10/15 08:48:40;;;;;;;11.27;5.35;;;;;;;;;;4943290;28;20072;-59
2023/10/15 08:51:05;;;;;;;10.43;5.18;;;;;;;;;;4967434;28;20132;-59
2023/10/15 08:53:31;;;;;;;9.90;4.80;;;;;;;;;;4957743;28;20161;-58
2023/10/15 08:55:59;;;;;;;12.10;5.78;;;;;;;;;;4971611;28;20865;-58
2023/10/15 08:58:25;;;;;;;10.93;5.18;;;;;;;;;;4975710;28;20037;-58
2023/10/15 09:00:50;;;;;;;12.48;5.75;;;;;;;;;;4944843;28;20404;-58
2023/10/15 09:03:15;;;;;;;8.23;5.47;;;;;;;;;;4943544;28;20096;-58
2023/10/15 09:05:42;;;;;;;10.63;5.68;;;;;;;;;;4954012;28;20449;-57
2023/10/15 09:08:07;;;;;;;11.20;5.22;;;;;;;;;;4949634;28;20033;-57
2023/10/15 09:10:42;;;;;;;13.00;5.82;;;;;;;;;;4944176;28;20138;-55
2023/10/15 09:13:18;;;;;;;14.18;5.38;;;;;;;;;;4942512;28;20387;-57
2023/10/15 09:15:45;;;;;;;11.25;5.55;;;;;;;;;;4941309;28;20034;-58
2023/10/15 09:18:16;;;;;;;12.82;5.95;;;;;;;;;;4949983;28;20515;-58
2023/10/15 09:20:45;;;;;;;12.50;5.68;;;;;;;;;;4939836;28;20378;-59
2023/10/15 09:23:11;;;;;;;13.15;6.20;;;;;;;;;;4947721;28;20125;-61
2023/10/15 09:25:36;;;;;;;14.35;6.05;;;;;;;;;;4945424;28;20525;-61
2023/10/15 09:28:03;;;;;;;12.70;5.80;;;;;;;;;;4938068;28;20157;-61
2023/10/15 09:30:32;;;;;;;14.32;6.45;;;;;;;;;;4948718;28;20051;-60
2023/10/15 09:32:57;;;;;;;11.05;6.10;;;;;;;;;;4963957;28;20081;-60
2023/10/15 09:35:23;;;;;;;11.43;5.57;;;;;;;;;;4944247;28;20626;-59
2023/10/15 09:37:48;;;;;;;9.45;5.22;;;;;;;;;;4951192;28;20039;-59
2023/10/15 09:40:19;;;;;;;9.82;5.68;;;;;;;;;;4949387;28;20089;-59
2023/10/15 09:42:53;;;;;;;10.77;5.57;;;;;;;;;;4951870;28;20059;-59
2023/10/15 09:45:18;;;;;;;11.45;5.30;;;;;;;;;;4952717;28;20050;-59
2023/10/15 09:47:52;;;;;;;11.20;4.60;;;;;;;;;;4953017;28;20031;-58
2023/10/15 09:50:19;;;;;;;15.02;5.18;;;;;;;;;;4949532;28;20057;-59
2023/10/15 09:52:55;;;;;;;9.15;4.95;;;;;;;;;;4947585;28;20204;-58
2023/10/15 09:55:33;;;;;;;8.80;5.10;;;;;;;;;;4964850;28;20536;-59
2023/10/15 09:58:01;;;;;;;11.05;4.50;;;;;;;;;;4933496;28;20113;-58
2023/10/15 10:00:46;;;;;;;9.85;5.40;;;;;;;;;;4955264;28;20049;-58
2023/10/15 10:03:30;;;;;;;14.43;5.50;;;;;;;;;;4945801;28;20041;-57
2023/10/15 10:06:11;;;;;;;10.23;5.20;;;;;;;;;;4942651;28;20049;-58
2023/10/15 10:08:49;;;;;;;10.02;4.72;;;;;;;;;;4945890;28;20085;-58
2023/10/15 10:11:14;;;;;;;8.43;4.75;;;;;;;;;;4949297;28;20150;-57
2023/10/15 10:13:49;;;;;;;10.75;4.60;;;;;;;;;;4942469;28;20043;-57
2023/10/15 10:16:22;;;;;;;9.18;4.30;;;;;;;;;;4942122;28;20049;-56
2023/10/15 10:18:47;;;;;;;8.20;4.68;;;;;;;;;;4942703;28;20053;-59
2023/10/15 10:21:15;;;;;;;10.00;4.68;;;;;;;;;;4940543;28;20046;-58
2023/10/15 10:23:41;;;;;;;10.00;4.78;;;;;;;;;;4939662;28;20141;-57
2023/10/15 10:26:12;;;;;;;9.27;4.20;;;;;;;;;;4937708;28;20153;-57
2023/10/15 10:28:37;;;;;;;10.77;4.55;;;;;;;;;;4939111;28;20109;-57
2023/10/15 10:31:04;;;;;;;10.95;4.57;;;;;;;;;;4939524;28;20054;-58
2023/10/15 10:33:42;;;;;;;10.65;4.50;;;;;;;;;;4941294;28;20078;-58
2023/10/15 10:36:11;;;;;;;9.43;4.13;;;;;;;;;;4941994;28;20053;-57
2023/10/15 10:38:39;;;;;;;8.68;4.15;;;;;;;;;;4962674;28;20564;-57
2023/10/15 10:41:06;;;;;;;10.13;4.43;;;;;;;;;;4940588;28;20427;-57
2023/10/15 10:43:33;;;;;;;8.75;4.50;;;;;;;;;;4939602;28;20038;-58
2023/10/15 10:45:58;;;;;;;9.02;4.43;;;;;;;;;;4950882;28;20034;-58
2023/10/15 10:48:24;;;;;;;9.63;4.07;;;;;;;;;;4942419;28;21161;-58
2023/10/15 10:51:11;;;;;;;6.90;3.53;;;;;;;;;;4925306;28;20324;-57
2023/10/15 10:53:37;;;;;;;8.73;3.53;;;;;;;;;;4938496;28;20058;-59
2023/10/15 10:56:05;;;;;;;8.43;3.90;;;;;;;;;;4938481;28;22892;-58
2023/10/15 10:58:31;;;;;;;8.85;3.72;;;;;;;;;;4925510;28;20507;-57
2023/10/15 11:00:56;;;;;;;7.00;3.80;;;;;;;;;;4950371;28;20129;-57
2023/10/15 11:03:22;;;;;;;8.02;3.55;;;;;;;;;;4941691;28;20035;-57
2023/10/15 11:05:49;;;;;;;7.57;3.63;;;;;;;;;;4935136;28;20022;-57
2023/10/15 11:08:17;;;;;;;7.05;3.30;;;;;;;;;;4952691;28;20180;-56
2023/10/15 11:10:45;;;;;;;7.10;4.05;;;;;;;;;;4950299;28;20062;-58
2023/10/15 11:13:10;;;;;;;7.65;3.35;;;;;;;;;;4952267;28;20124;-57
2023/10/15 11:15:36;;;;;;;8.00;3.47;;;;;;;;;;4940441;28;20110;-56
2023/10/15 11:18:04;;;;;;;9.65;3.65;;;;;;;;;;4940164;28;20050;-56
2023/10/15 11:20:33;;;;;;;5.22;3.60;;;;;;;;;;4938229;28;20379;-58
2023/10/15 11:23:01;;;;;;;6.43;3.45;;;;;;;;;;4943570;28;20035;-56
2023/10/15 11:25:26;;;;;;;8.52;3.78;;;;;;;;;;4943381;28;20045;-57
2023/10/15 11:27:51;;;;;;;8.57;3.93;;;;;;;;;;4945258;28;20451;-58
2023/10/15 11:30:18;;;;;;;8.70;3.78;;;;;;;;;;4941161;28;20735;-59
2023/10/15 11:32:44;;;;;;;9.43;3.78;;;;;;;;;;4941298;28;20035;-59
2023/10/15 11:35:13;;;;;;;9.80;3.90;;;;;;;;;;4942113;28;20039;-58
2023/10/15 11:37:38;;;;;;;7.32;3.70;;;;;;;;;;4941130;28;20047;-58
2023/10/15 11:40:04;;;;;;;8.75;3.55;;;;;;;;;;4941798;28;21743;-57
2023/10/15 11:42:33;;;;;;;8.88;4.00;;;;;;;;;;4942193;28;20046;-58
2023/10/15 11:44:58;;;;;;;7.18;3.53;;;;;;;;;;4942123;28;22025;-58
2023/10/15 11:47:25;;;;;;;6.82;3.78;;;;;;;;;;4948963;28;20031;-58
2023/10/15 11:49:50;;;;;;;7.18;3.85;;;;;;;;;;4942195;28;20061;-57
2023/10/15 11:52:18;;;;;;;7.78;4.20;;;;;;;;;;4940279;28;20038;-59
2023/10/15 11:54:49;;;;;;;11.05;4.10;;;;;;;;;;4943958;28;20049;-58
2023/10/15 11:57:20;;;;;;;8.02;3.50;;;;;;;;;;4950864;28;20431;-58
2023/10/15 11:59:45;;;;;;;9.95;3.97;;;;;;;;;;4942305;28;20038;-58
2023/10/15 12:02:12;;;;;;;7.53;3.83;;;;;;;;;;4939281;28;20423;-57
2023/10/15 12:04:38;;;;;;;7.00;3.78;;;;;;;;;;4947540;28;20291;-58
2023/10/15 12:07:04;;;;;;;9.50;4.43;;;;;;;;;;4945695;28;20538;-58
2023/10/15 12:09:31;;;;;;;6.40;3.90;;;;;;;;;;4943631;28;20051;-57
2023/10/15 12:11:57;;;;;;;7.95;3.92;;;;;;;;;;4940346;28;20042;-58
2023/10/15 12:14:24;;;;;;;7.38;4.15;;;;;;;;;;4945550;28;20073;-58
2023/10/15 12:16:49;;;;;;;8.27;3.50;;;;;;;;;;4946546;28;20431;-57
2023/10/15 12:19:15;;;;;;;6.35;3.70;;;;;;;;;;4957072;28;20221;-56
2023/10/15 12:21:40;;;;;;;8.10;3.92;;;;;;;;;;4951056;28;20519;-58
2023/10/15 12:24:07;;;;;;;7.07;3.63;;;;;;;;;;4949963;28;20505;-58
2023/10/15 12:26:32;;;;;;;6.20;3.78;;;;;;;;;;4949543;28;20043;-57
2023/10/15 12:28:58;;;;;;;8.32;3.80;;;;;;;;;;4962672;28;20645;-58
2023/10/15 12:31:23;;;;;;;7.72;3.65;;;;;;;;;;4940653;28;20035;-57
2023/10/15 12:33:49;;;;;;;7.53;3.83;;;;;;;;;;4943777;28;20027;-56
2023/10/15 12:36:14;;;;;;;6.70;3.60;;;;;;;;;;4942499;28;20213;-57
2023/10/15 12:38:39;;;;;;;7.15;3.50;;;;;;;;;;4938925;28;20528;-56
2023/10/15 12:41:05;;;;;;;7.80;3.58;;;;;;;;;;4941641;28;20112;-57
2023/10/15 12:43:31;;;;;;;7.30;4.00;;;;;;;;;;4940587;28;20412;-57
2023/10/15 12:45:56;;;;;;;7.32;3.50;;;;;;;;;;4922756;28;20072;-57
2023/10/15 12:48:22;;;;;;;6.88;3.58;;;;;;;;;;4942326;28;20667;-56
2023/10/15 12:50:47;;;;;;;7.85;3.78;;;;;;;;;;4942465;28;20065;-57
2023/10/15 12:53:13;;;;;;;7.18;3.90;;;;;;;;;;4941161;28;20035;-56
2023/10/15 12:55:38;;;;;;;7.18;4.00;;;;;;;;;;4941354;28;20427;-57
2023/10/15 12:58:04;;;;;;;7.55;3.97;;;;;;;;;;4940171;28;20130;-56
2023/10/15 13:00:32;;;;;;;6.05;3.67;;;;;;;;;;4936227;28;20144;-57
2023/10/15 13:02:58;;;;;;;6.85;3.97;;;;;;;;;;4950235;28;20479;-57
2023/10/15 13:05:23;;;;;;;8.15;3.63;;;;;;;;;;4968412;28;20396;-56
2023/10/15 13:07:49;;;;;;;8.77;4.00;;;;;;;;;;4953489;28;20081;-57
2023/10/15 13:10:17;;;;;;;7.15;3.70;;;;;;;;;;4962049;28;20617;-56
2023/10/15 13:12:43;;;;;;;7.75;3.70;;;;;;;;;;4954871;28;20130;-58
2023/10/15 13:15:08;;;;;;;6.03;3.65;;;;;;;;;;4948942;28;20039;-57
2023/10/15 13:17:34;;;;;;;7.40;4.00;;;;;;;;;;4948221;28;20117;-57
2023/10/15 13:20:02;;;;;;;7.30;3.30;;;;;;;;;;4988976;23;20058;-73
2023/10/15 13:22:27;;;;;;;7.03;3.50;;;;;;;;;;5000365;28;20029;-71
2023/10/15 13:24:52;;;;;;;5.80;3.50;;;;;;;;;;4996470;28;20088;-68
2023/10/15 13:27:18;;;;;;;5.13;3.20;;;;;;;;;;4996148;28;20298;-69
2023/10/15 13:29:43;;;;;;;7.30;3.50;;;;;;;;;;4995385;28;20787;-69
2023/10/15 13:32:09;;;;;;;6.72;3.72;;;;;;;;;;4995052;28;20117;-69
2023/10/15 13:34:34;;;;;;;4.55;3.08;;;;;;;;;;4991474;28;21453;-69
2023/10/15 13:37:01;;;;;;;6.80;3.13;;;;;;;;;;4994681;28;20061;-71
2023/10/15 13:39:28;;;;;;;7.30;3.40;;;;;;;;;;4994117;28;20324;-74
2023/10/15 13:41:54;;;;;;;8.15;3.60;;;;;;;;;;4995300;28;20555;-74
2023/10/15 13:44:19;;;;;;;6.80;3.78;;;;;;;;;;4996662;28;20038;-77
2023/10/15 13:46:47;;;;;;;6.60;3.83;;;;;;;;;;4993980;28;20072;-71
2023/10/15 13:49:13;;;;;;;7.28;3.42;;;;;;;;;;4991403;28;20336;-70
2023/10/15 13:51:42;;;;;;;7.50;3.22;;;;;;;;;;4994206;28;20141;-71
2023/10/15 13:54:08;;;;;;;7.45;3.70;;;;;;;;;;4992798;28;20110;-69
2023/10/15 13:56:33;;;;;;;9.00;3.45;;;;;;;;;;4993011;28;20052;-71
2023/10/15 13:58:59;;;;;;;5.22;3.25;;;;;;;;;;4994365;28;20023;-71
2023/10/15 14:01:24;;;;;;;8.60;3.50;;;;;;;;;;4994997;28;20487;-69
2023/10/15 14:03:51;;;;;;;8.18;3.65;;;;;;;;;;4996459;28;20062;-70
2023/10/15 14:06:18;;;;;;;7.90;3.50;;;;;;;;;;4993844;28;20726;-70
2023/10/15 14:08:43;;;;;;;6.38;3.53;;;;;;;;;;5002893;28;20034;-70
2023/10/15 14:11:10;;;;;;;9.00;3.92;;;;;;;;;;4994478;28;20124;-70
2023/10/15 14:13:35;;;;;;;7.20;3.50;;;;;;;;;;4994279;28;20057;-70
2023/10/15 14:16:02;;;;;;;7.70;3.25;;;;;;;;;;4995341;28;20546;-70
2023/10/15 14:18:30;;;;;;;8.13;3.20;;;;;;;;;;4993139;28;20145;-69
2023/10/15 14:20:56;;;;;;;7.55;3.53;;;;;;;;;;4992498;28;20040;-69
2023/10/15 14:23:21;;;;;;;7.20;3.47;;;;;;;;;;4992434;28;20278;-70
2023/10/15 14:25:48;;;;;;;5.53;3.10;;;;;;;;;;4994999;28;20041;-68
2023/10/15 14:28:13;;;;;;;7.50;3.13;;;;;;;;;;4994854;28;20030;-70
2023/10/15 14:30:39;;;;;;;7.18;2.78;;;;;;;;;;4992784;28;20057;-70
2023/10/15 14:33:05;;;;;;;6.13;3.00;;;;;;;;;;4993475;28;20417;-68
2023/10/15 14:35:30;;;;;;;7.33;2.77;;;;;;;;;;4992866;28;20552;-69
2023/10/15 14:37:55;;;;;;;6.05;2.97;;;;;;;;;;4993802;28;20300;-69
2023/10/15 14:40:21;;;;;;;7.80;2.87;;;;;;;;;;4992449;28;20034;-68
2023/10/15 14:42:46;;;;;;;7.40;3.20;;;;;;;;;;4990754;28;20823;-69
2023/10/15 14:45:11;;;;;;;6.93;2.78;;;;;;;;;;4992889;28;20072;-71
2023/10/15 14:47:37;;;;;;;7.37;2.83;;;;;;;;;;4994578;28;20509;-72
2023/10/15 14:50:02;;;;;;;6.82;3.20;;;;;;;;;;4995229;28;20313;-71
2023/10/15 14:52:28;;;;;;;8.65;3.70;;;;;;;;;;4993765;28;20416;-71
2023/10/15 14:54:53;;;;;;;8.98;3.72;;;;;;;;;;4994042;28;20038;-72
2023/10/15 14:57:18;;;;;;;8.00;4.30;;;;;;;;;;4993762;28;20568;-69
2023/10/15 14:59:44;;;;;;;7.75;4.18;;;;;;;;;;4996844;28;20415;-73
2023/10/15 15:02:10;;;;;;;11.32;3.80;;;;;;;;;;4993012;28;20096;-72
2023/10/15 15:04:36;;;;;;;7.70;3.85;;;;;;;;;;4991142;28;20117;-70